ACA2210 CYVR-EIDW
Flight info
| Callsign | ACA2210 |
|---|---|
| Flight time | N/A |
| Altitude | 35000 |
| Route | DOLLR DCT GARRE DCT SEATN DCT 52N120W 57N110W/N0488F370 5930N10000W 6130N09000W 63N080W 6330N07000W DCT KAGLY/M084F390 DCT EMBOK DCT 63N050W 6230N04000W 61N030W 5830N02000W DCT SUNOT/N0482F390 DCT KESIX DCT NIBOG DCT MOLAK DCT OLAPO OLAPO4L |
| Aircraft | B772/H-SDE2E3FGHIJ5LORVWXY/LB1D1 |
Departure
| Time | N/A |
|---|---|
| Airport | Vancouver International Airport (CYVR) |
Arrival
| Time | 2026-05-06 19:58 |
|---|---|
| Airport | Dublin Airport (EIDW) |
| Time | Latitude | Longitude | Altitude | Speed | Heading |
|---|---|---|---|---|---|
| 2026-05-06 19:26 | 54.63672 | -9.53388 | 34945 ft | 516 kts | 138° |
| 2026-05-06 19:26 | 54.59040 | -9.44272 | 34618 ft | 518 kts | 122° |
| 2026-05-06 19:26 | 54.57109 | -9.39035 | 34059 ft | 517 kts | 120° |
| 2026-05-06 19:27 | 54.55235 | -9.33829 | 33611 ft | 512 kts | 121° |
| 2026-05-06 19:27 | 54.53326 | -9.28536 | 33196 ft | 512 kts | 121° |
| 2026-05-06 19:27 | 54.51437 | -9.23318 | 32793 ft | 514 kts | 121° |
| 2026-05-06 19:27 | 54.49546 | -9.18112 | 32391 ft | 514 kts | 121° |
| 2026-05-06 19:28 | 54.47649 | -9.12903 | 31985 ft | 512 kts | 122° |
| 2026-05-06 19:28 | 54.45755 | -9.07721 | 31579 ft | 513 kts | 122° |
| 2026-05-06 19:28 | 54.43840 | -9.02494 | 31163 ft | 512 kts | 122° |
| 2026-05-06 19:28 | 54.41968 | -8.97395 | 30741 ft | 507 kts | 122° |
| 2026-05-06 19:29 | 54.40092 | -8.92299 | 30315 ft | 503 kts | 122° |
| 2026-05-06 19:29 | 54.38243 | -8.87290 | 29905 ft | 499 kts | 122° |
| 2026-05-06 19:29 | 54.36408 | -8.82327 | 29509 ft | 496 kts | 122° |
| 2026-05-06 19:29 | 54.34555 | -8.77327 | 29105 ft | 493 kts | 122° |
| 2026-05-06 19:30 | 54.32718 | -8.72379 | 28706 ft | 490 kts | 122° |
| 2026-05-06 19:30 | 54.30895 | -8.67479 | 28306 ft | 487 kts | 122° |
| 2026-05-06 19:30 | 54.29061 | -8.62561 | 27908 ft | 483 kts | 122° |
| 2026-05-06 19:30 | 54.27279 | -8.57792 | 27519 ft | 480 kts | 122° |
| 2026-05-06 19:31 | 54.25452 | -8.52910 | 27121 ft | 477 kts | 122° |
| 2026-05-06 19:31 | 54.23660 | -8.48132 | 26730 ft | 474 kts | 122° |
| 2026-05-06 19:31 | 54.20104 | -8.38679 | 25957 ft | 467 kts | 122° |
| 2026-05-06 19:32 | 54.18332 | -8.33980 | 25574 ft | 465 kts | 123° |
| 2026-05-06 19:32 | 54.16589 | -8.29370 | 25188 ft | 462 kts | 123° |
| 2026-05-06 19:32 | 54.14849 | -8.24774 | 24815 ft | 459 kts | 123° |
| 2026-05-06 19:32 | 54.13136 | -8.20257 | 24446 ft | 457 kts | 123° |
| 2026-05-06 19:33 | 54.11415 | -8.15729 | 24074 ft | 454 kts | 123° |
| 2026-05-06 19:33 | 54.09677 | -8.11164 | 23692 ft | 451 kts | 123° |
| 2026-05-06 19:33 | 54.07977 | -8.06707 | 23339 ft | 449 kts | 123° |
| 2026-05-06 19:33 | 54.06288 | -8.02286 | 22970 ft | 445 kts | 123° |
| 2026-05-06 19:34 | 54.04591 | -7.97853 | 22611 ft | 443 kts | 123° |
| 2026-05-06 19:34 | 54.02918 | -7.93490 | 22252 ft | 441 kts | 123° |
| 2026-05-06 19:34 | 54.01261 | -7.89176 | 21899 ft | 437 kts | 123° |
| 2026-05-06 19:34 | 53.99572 | -7.84786 | 21536 ft | 434 kts | 123° |
| 2026-05-06 19:35 | 53.97921 | -7.80502 | 21184 ft | 432 kts | 123° |
| 2026-05-06 19:35 | 53.96333 | -7.76391 | 20685 ft | 424 kts | 123° |
| 2026-05-06 19:35 | 53.94687 | -7.72134 | 19852 ft | 420 kts | 123° |
| 2026-05-06 19:35 | 53.93077 | -7.67979 | 19001 ft | 416 kts | 123° |
| 2026-05-06 19:36 | 53.91494 | -7.63898 | 18206 ft | 412 kts | 123° |
| 2026-05-06 19:36 | 53.89951 | -7.59928 | 17555 ft | 405 kts | 123° |
| 2026-05-06 19:36 | 53.88394 | -7.55928 | 17147 ft | 407 kts | 123° |
| 2026-05-06 19:36 | 53.86834 | -7.51926 | 16764 ft | 404 kts | 123° |
| 2026-05-06 19:37 | 53.85283 | -7.47956 | 16396 ft | 401 kts | 123° |
| 2026-05-06 19:37 | 53.83747 | -7.44028 | 16030 ft | 399 kts | 124° |
| 2026-05-06 19:37 | 53.82235 | -7.40168 | 15667 ft | 396 kts | 124° |
| 2026-05-06 19:37 | 53.80722 | -7.36310 | 15304 ft | 393 kts | 123° |
| 2026-05-06 19:38 | 53.79424 | -7.32238 | 14945 ft | 392 kts | 113° |
| 2026-05-06 19:38 | 53.78623 | -7.27864 | 14588 ft | 391 kts | 102° |
| 2026-05-06 19:38 | 53.78358 | -7.23343 | 14507 ft | 390 kts | 90° |
| 2026-05-06 19:38 | 53.78542 | -7.18786 | 14508 ft | 390 kts | 84° |
| 2026-05-06 19:39 | 53.78814 | -7.14299 | 14491 ft | 371 kts | 84° |
| 2026-05-06 19:39 | 53.79069 | -7.10058 | 14485 ft | 354 kts | 84° |
| 2026-05-06 19:39 | 53.79308 | -7.06032 | 14478 ft | 338 kts | 84° |
| 2026-05-06 19:39 | 53.79528 | -7.02207 | 14470 ft | 323 kts | 84° |
| 2026-05-06 19:40 | 53.79736 | -6.98499 | 14431 ft | 306 kts | 84° |
| 2026-05-06 19:40 | 53.79928 | -6.94987 | 14103 ft | 302 kts | 84° |
| 2026-05-06 19:40 | 53.80120 | -6.91422 | 13613 ft | 303 kts | 85° |
| 2026-05-06 19:40 | 53.80307 | -6.87929 | 13217 ft | 300 kts | 85° |
| 2026-05-06 19:41 | 53.80492 | -6.84423 | 12808 ft | 298 kts | 85° |
| 2026-05-06 19:41 | 53.80677 | -6.80924 | 12377 ft | 297 kts | 85° |
| 2026-05-06 19:41 | 53.80856 | -6.77490 | 11970 ft | 295 kts | 85° |
| 2026-05-06 19:41 | 53.81036 | -6.74047 | 11575 ft | 293 kts | 85° |
| 2026-05-06 19:42 | 53.81211 | -6.70656 | 11192 ft | 290 kts | 85° |
| 2026-05-06 19:42 | 53.81387 | -6.67256 | 10817 ft | 289 kts | 85° |
| 2026-05-06 19:42 | 53.81560 | -6.63896 | 10456 ft | 287 kts | 85° |
| 2026-05-06 19:42 | 53.81732 | -6.60538 | 10099 ft | 285 kts | 85° |
| 2026-05-06 19:43 | 53.81886 | -6.57219 | 9745 ft | 281 kts | 90° |
| 2026-05-06 19:43 | 53.81495 | -6.54136 | 9680 ft | 264 kts | 117° |
| 2026-05-06 19:43 | 53.80382 | -6.51775 | 9521 ft | 254 kts | 144° |
| 2026-05-06 19:43 | 53.78795 | -6.50530 | 9216 ft | 249 kts | 171° |
| 2026-05-06 19:44 | 53.77113 | -6.50585 | 8921 ft | 245 kts | 196° |
| 2026-05-06 19:44 | 53.75600 | -6.51843 | 8640 ft | 241 kts | 217° |
| 2026-05-06 19:44 | 53.74250 | -6.53599 | 8403 ft | 239 kts | 219° |
| 2026-05-06 19:44 | 53.72933 | -6.55352 | 8144 ft | 238 kts | 219° |
| 2026-05-06 19:45 | 53.71648 | -6.57065 | 7988 ft | 234 kts | 219° |
| 2026-05-06 19:45 | 53.70483 | -6.58980 | 7967 ft | 236 kts | 238° |
| 2026-05-06 19:45 | 53.69926 | -6.61563 | 7966 ft | 236 kts | 262° |
| 2026-05-06 19:45 | 53.69806 | -6.64355 | 7969 ft | 237 kts | 267° |
| 2026-05-06 19:46 | 53.69769 | -6.67141 | 7969 ft | 237 kts | 268° |
| 2026-05-06 19:46 | 53.69746 | -6.69900 | 7970 ft | 237 kts | 268° |
| 2026-05-06 19:46 | 53.69723 | -6.72708 | 7969 ft | 237 kts | 268° |
| 2026-05-06 19:46 | 53.69606 | -6.75445 | 7961 ft | 236 kts | 254° |
| 2026-05-06 19:47 | 53.68930 | -6.77977 | 7967 ft | 237 kts | 240° |
| 2026-05-06 19:47 | 53.68067 | -6.80389 | 7969 ft | 236 kts | 238° |
| 2026-05-06 19:47 | 53.67193 | -6.82751 | 7968 ft | 237 kts | 238° |
| 2026-05-06 19:47 | 53.66318 | -6.85110 | 7968 ft | 236 kts | 238° |
| 2026-05-06 19:48 | 53.65453 | -6.87445 | 7969 ft | 236 kts | 238° |
| 2026-05-06 19:48 | 53.64476 | -6.89643 | 7962 ft | 236 kts | 221° |
| 2026-05-06 19:48 | 53.63088 | -6.91163 | 7967 ft | 238 kts | 210° |
| 2026-05-06 19:48 | 53.61615 | -6.92459 | 7967 ft | 238 kts | 208° |
| 2026-05-06 19:49 | 53.60128 | -6.93703 | 7964 ft | 238 kts | 203° |
| 2026-05-06 19:49 | 53.58485 | -6.94133 | 7959 ft | 241 kts | 175° |
| 2026-05-06 19:49 | 53.56920 | -6.93190 | 7956 ft | 246 kts | 146° |
| 2026-05-06 19:49 | 53.55783 | -6.91020 | 7941 ft | 250 kts | 117° |
| 2026-05-06 19:50 | 53.55317 | -6.88187 | 7583 ft | 259 kts | 98° |
| 2026-05-06 19:50 | 53.55144 | -6.85139 | 7231 ft | 262 kts | 95° |
| 2026-05-06 19:50 | 53.54998 | -6.82095 | 6954 ft | 261 kts | 95° |
| 2026-05-06 19:50 | 53.54845 | -6.79080 | 6712 ft | 259 kts | 96° |
| 2026-05-06 19:51 | 53.54687 | -6.76095 | 6470 ft | 257 kts | 96° |
| 2026-05-06 19:51 | 53.54522 | -6.73085 | 6231 ft | 255 kts | 98° |
| 2026-05-06 19:51 | 53.53942 | -6.70364 | 5966 ft | 249 kts | 127° |
| 2026-05-06 19:51 | 53.52669 | -6.68448 | 5743 ft | 242 kts | 155° |
| 2026-05-06 19:52 | 53.51086 | -6.67715 | 5523 ft | 237 kts | 175° |
| 2026-05-06 19:52 | 53.49435 | -6.67661 | 5299 ft | 235 kts | 183° |
| 2026-05-06 19:52 | 53.47820 | -6.67838 | 5076 ft | 233 kts | 185° |
| 2026-05-06 19:52 | 53.46215 | -6.67675 | 4840 ft | 231 kts | 161° |
| 2026-05-06 19:53 | 53.44902 | -6.66172 | 4621 ft | 231 kts | 129° |
| 2026-05-06 19:53 | 53.44221 | -6.63768 | 4325 ft | 235 kts | 105° |
| 2026-05-06 19:53 | 53.43925 | -6.61046 | 4016 ft | 239 kts | 97° |
| 2026-05-06 19:53 | 53.43769 | -6.58229 | 3697 ft | 242 kts | 96° |
| 2026-05-06 19:54 | 53.43632 | -6.55390 | 3374 ft | 245 kts | 96° |
| 2026-05-06 19:54 | 53.43493 | -6.52522 | 3047 ft | 245 kts | 96° |
| 2026-05-06 19:54 | 53.43361 | -6.49831 | 2738 ft | 224 kts | 96° |
| 2026-05-06 19:54 | 53.43236 | -6.47339 | 2459 ft | 207 kts | 96° |
| 2026-05-06 19:55 | 53.43115 | -6.45026 | 2209 ft | 190 kts | 97° |
| 2026-05-06 19:55 | 53.43001 | -6.42899 | 1964 ft | 175 kts | 97° |
| 2026-05-06 19:55 | 53.42894 | -6.40920 | 1731 ft | 165 kts | 98° |
| 2026-05-06 19:55 | 53.42793 | -6.39070 | 1501 ft | 158 kts | 97° |
| 2026-05-06 19:56 | 53.42699 | -6.37325 | 1298 ft | 140 kts | 97° |
| 2026-05-06 19:56 | 53.42610 | -6.35714 | 1102 ft | 138 kts | 97° |
| 2026-05-06 19:56 | 53.42526 | -6.34156 | 911 ft | 135 kts | 98° |
| 2026-05-06 19:56 | 53.42442 | -6.32606 | 697 ft | 131 kts | 97° |
| 2026-05-06 19:57 | 53.42358 | -6.31063 | 503 ft | 134 kts | 98° |
| 2026-05-06 19:57 | 53.42274 | -6.29507 | 340 ft | 131 kts | 97° |
| 2026-05-06 19:57 | 53.42188 | -6.28013 | 241 ft | 118 kts | 97° |
| 2026-05-06 19:57 | 53.42122 | -6.26851 | 231 ft | 83 kts | 95° |
| 2026-05-06 19:58 | 53.42078 | -6.26089 | 219 ft | 47 kts | 96° |
| 2026-05-06 19:58 | 53.42059 | -6.25685 | 217 ft | 26 kts | 94° |
| 2026-05-06 19:58 | 53.42104 | -6.25383 | 215 ft | 28 kts | 59° |
| 2026-05-06 19:58 | 53.42202 | -6.25094 | 209 ft | 20 kts | 61° |
| 2026-05-06 19:59 | 53.42260 | -6.24954 | 209 ft | 8 kts | 48° |
| 2026-05-06 19:59 | 53.42267 | -6.24940 | 209 ft | 0 kts | 46° |
| 2026-05-06 20:01 | 53.42271 | -6.24934 | 209 ft | 3 kts | 46° |
| 2026-05-06 20:01 | 53.42311 | -6.24862 | 208 ft | 11 kts | 47° |
| 2026-05-06 20:02 | 53.42376 | -6.24749 | 208 ft | 14 kts | 46° |
| 2026-05-06 20:02 | 53.42432 | -6.24616 | 211 ft | 5 kts | 60° |
| 2026-05-06 20:02 | 53.42440 | -6.24552 | 213 ft | 6 kts | 101° |
| 2026-05-06 20:02 | 53.42408 | -6.24491 | 212 ft | 8 kts | 135° |
| 2026-05-06 20:03 | 53.42394 | -6.24470 | 212 ft | 0 kts | 136° |